Time;durP1;ratioP1;P1;durP2;ratioP2;P2;SDS_P1;SDS_P2;PMS_P1;PMS_P2;Temp;Humidity;BMP_temperature;BMP_pressure;BME280_temperature;BME280_humidity;BME280_pressure;Samples;Min_cycle;Max_cycle;Signal;HPM_P1;HPM_P2
2022/12/31 00:02:03;;;;;;;1.10;0.10;;;12.00;99.90;;;;;;5053805;28;20092;-75
2022/12/31 00:04:29;;;;;;;0.30;0.00;;;12.80;99.90;;;;;;5035910;28;20104;-75
2022/12/31 00:06:54;;;;;;;0.35;0.10;;;11.90;99.90;;;;;;5036006;28;20059;-75
2022/12/31 00:09:20;;;;;;;1.08;0.22;;;12.10;99.90;;;;;;5035449;28;20571;-75
2022/12/31 00:11:45;;;;;;;0.40;0.10;;;12.60;99.90;;;;;;5035549;28;20495;-74
2022/12/31 00:14:11;;;;;;;1.10;0.38;;;11.90;99.90;;;;;;5035606;28;20020;-75
2022/12/31 00:16:39;;;;;;;0.95;0.03;;;11.90;99.90;;;;;;5053277;28;20364;-75
2022/12/31 00:19:07;;;;;;;1.00;0.10;;;11.90;99.90;;;;;;5053376;28;20480;-75
2022/12/31 00:21:33;;;;;;;2.37;0.10;;;11.90;99.90;;;;;;5053394;28;20017;-75
2022/12/31 00:23:59;;;;;;;1.38;0.35;;;11.90;99.90;;;;;;5053071;28;20098;-75
2022/12/31 00:26:28;;;;;;;1.25;0.40;;;11.90;99.90;;;;;;5053006;28;20025;-75
2022/12/31 00:28:55;;;;;;;3.22;0.40;;;11.90;99.90;;;;;;5053057;28;20025;-75
2022/12/31 00:31:30;;;;;;;1.65;0.32;;;11.90;99.90;;;;;;5053217;28;20036;-75
2022/12/31 00:33:57;;;;;;;3.60;0.57;;;12.00;99.90;;;;;;5053189;28;20511;-75
2022/12/31 00:36:26;;;;;;;2.60;1.63;;;12.00;99.90;;;;;;5035329;28;20484;-75
2022/12/31 00:38:53;;;;;;;2.97;1.17;;;12.00;99.90;;;;;;5053033;28;20021;-75
2022/12/31 00:41:21;;;;;;;3.33;1.20;;;12.00;99.90;;;;;;5035651;28;20471;-75
2022/12/31 00:43:47;;;;;;;3.38;1.38;;;12.00;99.90;;;;;;5053596;28;20092;-75
2022/12/31 00:46:13;;;;;;;1.40;0.60;;;11.90;99.90;;;;;;5053361;28;20103;-75
2022/12/31 00:48:39;;;;;;;1.45;0.38;;;11.90;99.90;;;;;;5052825;28;20092;-75
2022/12/31 00:51:07;;;;;;;1.38;0.60;;;11.90;99.90;;;;;;5035223;28;20063;-75
2022/12/31 00:53:33;;;;;;;2.17;0.40;;;11.90;99.90;;;;;;5035157;28;20107;-75
2022/12/31 00:56:08;;;;;;;2.08;0.45;;;11.90;99.90;;;;;;5053622;28;20060;-76
2022/12/31 00:58:34;;;;;;;5.53;0.38;;;11.90;99.90;;;;;;5052851;28;20075;-75
2022/12/31 01:01:22;;;;;;;2.65;0.10;;;11.90;99.90;;;;;;5053376;28;20018;-75
2022/12/31 01:03:52;;;;;;;10.50;0.50;;;11.90;99.90;;;;;;5053014;28;20476;-75
2022/12/31 01:06:18;;;;;;;0.55;0.00;;;11.80;99.90;;;;;;5052831;28;20028;-75
2022/12/31 01:08:46;;;;;;;3.25;0.55;;;11.80;99.90;;;;;;5035000;28;20536;-75
2022/12/31 01:11:17;;;;;;;2.35;0.10;;;11.80;99.90;;;;;;5035511;28;20391;-75
2022/12/31 01:13:50;;;;;;;1.02;0.00;;;11.80;99.90;;;;;;5053323;28;20053;-75
2022/12/31 01:16:18;;;;;;;1.85;0.00;;;11.80;99.90;;;;;;5034896;28;20056;-76
2022/12/31 01:18:43;;;;;;;2.30;0.13;;;11.70;99.90;;;;;;5052553;28;20476;-75
2022/12/31 01:21:11;;;;;;;3.17;0.10;;;11.70;99.90;;;;;;5053188;28;20022;-75
2022/12/31 01:23:36;;;;;;;3.03;0.38;;;11.70;99.90;;;;;;5052560;28;20029;-75
2022/12/31 01:26:04;;;;;;;3.78;0.10;;;11.70;99.90;;;;;;5035042;28;20028;-75
2022/12/31 01:28:30;;;;;;;5.55;1.55;;;11.70;99.90;;;;;;5034690;28;20108;-75
2022/12/31 01:30:56;;;;;;;3.40;0.35;;;11.70;99.90;;;;;;5034748;28;20033;-75
2022/12/31 01:33:22;;;;;;;0.82;0.45;;;11.70;99.90;;;;;;5052471;28;20108;-75
2022/12/31 01:35:48;;;;;;;4.82;0.00;;;11.70;99.90;;;;;;5053052;28;20079;-75
2022/12/31 01:38:13;;;;;;;1.42;0.05;;;12.10;99.90;;;;;;5055039;28;20442;-75
2022/12/31 01:40:40;;;;;;;1.77;0.00;;;11.70;99.90;;;;;;5056268;28;20044;-75
2022/12/31 01:43:17;;;;;;;1.15;0.00;;;11.70;99.90;;;;;;5056093;28;20387;-76
2022/12/31 01:45:49;;;;;;;1.02;0.00;;;11.70;99.90;;;;;;5056026;28;20044;-75
2022/12/31 01:48:21;;;;;;;2.55;0.75;;;11.70;99.90;;;;;;5056023;28;20029;-76
2022/12/31 01:50:48;;;;;;;3.53;0.00;;;11.70;99.90;;;;;;5055798;28;20460;-75
2022/12/31 01:53:15;;;;;;;2.60;0.00;;;11.70;99.90;;;;;;5055892;28;20057;-76
2022/12/31 01:55:49;;;;;;;4.47;0.15;;;11.60;99.90;;;;;;5038028;28;20029;-76
2022/12/31 01:58:22;;;;;;;0.85;0.00;;;11.60;99.90;;;;;;5055680;28;20108;-76
2022/12/31 02:00:49;;;;;;;2.35;0.45;;;11.60;99.90;;;;;;5037728;28;20389;-76
2022/12/31 02:03:15;;;;;;;4.07;0.77;;;11.50;99.90;;;;;;5056326;28;20432;-76
2022/12/31 02:06:06;;;;;;;2.13;0.43;;;11.70;99.90;;;;;;5055620;28;20057;-75
2022/12/31 02:08:32;;;;;;;3.45;0.00;;;11.60;99.90;;;;;;5055693;28;20036;-76
2022/12/31 02:10:57;;;;;;;2.95;0.08;;;11.50;99.90;;;;;;5055456;28;20025;-75
2022/12/31 02:13:23;;;;;;;0.93;0.00;;;11.50;99.90;;;;;;5037618;28;20369;-75
2022/12/31 02:16:03;;;;;;;3.22;0.20;;;11.80;99.90;;;;;;5055536;28;20025;-75
2022/12/31 02:18:31;;;;;;;1.65;0.10;;;11.50;99.90;;;;;;5055473;28;20025;-75
2022/12/31 02:21:23;;;;;;;;;;;11.50;99.90;;;;;;5037839;28;20032;-76
2022/12/31 02:24:36;;;;;;;2.17;0.10;;;11.60;99.90;;;;;;5055551;28;20394;-75
2022/12/31 02:27:42;;;;;;;1.48;0.05;;;11.60;99.90;;;;;;5055650;28;20060;-75
2022/12/31 02:30:10;;;;;;;1.85;0.17;;;11.60;99.90;;;;;;5054844;28;20450;-75
2022/12/31 02:32:46;;;;;;;5.88;0.70;;;11.60;99.90;;;;;;5055041;28;20041;-75
2022/12/31 02:35:21;;;;;;;0.75;0.00;;;11.60;99.90;;;;;;5055618;28;20475;-75
2022/12/31 02:37:52;;;;;;;1.50;0.15;;;11.60;99.90;;;;;;5054947;28;20504;-75
2022/12/31 02:40:19;;;;;;;1.38;0.00;;;11.50;99.90;;;;;;5037116;28;20040;-76
2022/12/31 02:42:45;;;;;;;2.70;0.20;;;11.40;99.90;;;;;;5054870;28;20025;-76
2022/12/31 02:45:16;;;;;;;1.60;0.00;;;12.00;99.90;;;;;;5055000;28;20028;-76
2022/12/31 02:47:51;;;;;;;2.15;0.55;;;11.50;99.90;;;;;;5054876;28;20032;-75
2022/12/31 02:50:24;;;;;;;4.13;0.03;;;11.40;99.90;;;;;;5054774;28;20117;-76
2022/12/31 02:53:04;;;;;;;3.00;0.00;;;11.40;99.90;;;;;;5055097;28;20056;-75
2022/12/31 02:55:40;;;;;;;2.10;0.08;;;11.40;99.90;;;;;;5036758;28;20545;-75
2022/12/31 03:04:33;;;;;;;0.85;0.00;;;11.40;99.90;;;;;;5055373;28;20044;-75
2022/12/31 03:07:01;;;;;;;3.38;0.57;;;11.40;99.90;;;;;;5054523;28;20039;-75
2022/12/31 03:09:27;;;;;;;3.20;0.22;;;11.30;99.90;;;;;;5054357;28;20029;-75
2022/12/31 03:14:37;;;;;;;1.50;0.25;;;11.40;99.90;;;;;;5055222;28;20035;-76
2022/12/31 03:17:02;;;;;;;1.95;0.10;;;11.40;99.90;;;;;;5036350;28;20033;-76
2022/12/31 03:22:27;;;;;;;4.00;0.20;;;11.30;99.90;;;;;;5054965;28;20490;-76
2022/12/31 03:25:35;;;;;;;2.58;0.20;;;11.60;99.90;;;;;;5053932;28;20431;-76
2022/12/31 03:28:02;;;;;;;6.05;0.20;;;11.20;99.90;;;;;;5054485;28;20033;-76
2022/12/31 03:30:30;;;;;;;2.92;0.00;;;11.20;99.90;;;;;;5053985;28;20487;-75
2022/12/31 03:32:56;;;;;;;0.43;0.00;;;11.60;99.90;;;;;;5054034;28;20035;-76
2022/12/31 03:35:22;;;;;;;1.15;0.00;;;11.20;99.90;;;;;;5036481;28;20024;-77
2022/12/31 03:37:49;;;;;;;2.20;0.00;;;11.20;99.90;;;;;;5053913;28;20025;-76
2022/12/31 03:40:17;;;;;;;2.42;0.03;;;11.10;99.90;;;;;;5053850;28;20480;-76
2022/12/31 03:42:42;;;;;;;6.22;0.00;;;11.10;99.90;;;;;;5054456;28;20092;-76
2022/12/31 03:45:09;;;;;;;3.35;0.05;;;11.10;99.90;;;;;;5053777;28;20079;-76
2022/12/31 03:47:35;;;;;;;1.38;0.00;;;11.00;99.90;;;;;;5053655;28;20052;-76
2022/12/31 03:50:01;;;;;;;0.77;0.00;;;11.10;99.90;;;;;;5035716;28;20488;-76
2022/12/31 03:52:26;;;;;;;2.05;0.00;;;11.00;99.90;;;;;;5035836;28;20111;-76
2022/12/31 03:54:52;;;;;;;0.60;0.00;;;11.00;99.90;;;;;;5053507;28;20025;-76
2022/12/31 03:57:17;;;;;;;0.90;0.35;;;11.90;99.90;;;;;;5036086;28;20044;-75
2022/12/31 03:59:43;;;;;;;1.35;0.00;;;10.90;99.90;;;;;;5052997;28;20029;-76
2022/12/31 04:02:09;;;;;;;0.75;0.28;;;10.90;99.90;;;;;;5053482;28;20472;-75
2022/12/31 04:04:34;;;;;;;0.82;0.00;;;10.80;99.90;;;;;;5053954;28;20106;-75
2022/12/31 04:07:00;;;;;;;1.33;0.00;;;10.80;99.90;;;;;;5035524;28;20028;-75
2022/12/31 04:09:25;;;;;;;2.70;0.00;;;10.80;99.90;;;;;;5053288;28;20475;-75
2022/12/31 04:11:51;;;;;;;2.78;0.10;;;11.00;99.90;;;;;;5053171;28;20025;-76
2022/12/31 04:14:17;;;;;;;2.53;0.00;;;10.70;99.90;;;;;;5053277;28;20030;-76
2022/12/31 04:16:43;;;;;;;0.75;0.00;;;10.70;99.90;;;;;;5053229;28;20029;-76
2022/12/31 04:19:09;;;;;;;4.07;0.03;;;10.80;99.90;;;;;;5053277;28;20079;-75
2022/12/31 04:21:35;;;;;;;1.95;0.45;;;10.90;99.90;;;;;;5053240;28;20032;-75
2022/12/31 04:24:01;;;;;;;2.30;0.00;;;10.80;99.90;;;;;;5053091;28;20112;-75
2022/12/31 04:26:27;;;;;;;0.70;0.05;;;10.70;99.90;;;;;;5035280;28;20021;-75
2022/12/31 04:28:53;;;;;;;0.17;0.00;;;10.70;99.90;;;;;;5053047;28;20480;-75
2022/12/31 04:31:19;;;;;;;0.65;0.00;;;10.70;99.90;;;;;;5053425;28;20063;-75
2022/12/31 04:33:44;;;;;;;0.10;0.10;;;10.70;99.90;;;;;;5053147;28;20029;-76
2022/12/31 04:36:10;;;;;;;1.77;0.10;;;10.70;99.90;;;;;;5053021;28;20388;-76
2022/12/31 04:38:35;;;;;;;3.67;0.35;;;10.70;99.90;;;;;;5052962;28;20068;-75
2022/12/31 04:41:17;;;;;;;1.45;0.00;;;10.60;99.90;;;;;;5035220;28;20067;-75
2022/12/31 04:43:44;;;;;;;0.30;0.00;;;10.70;99.90;;;;;;5035210;28;20031;-76
2022/12/31 04:46:10;;;;;;;2.15;0.03;;;10.70;99.90;;;;;;5052997;28;20021;-76
2022/12/31 04:48:36;;;;;;;0.65;0.00;;;10.70;99.90;;;;;;5052913;28;20025;-75
2022/12/31 04:51:02;;;;;;;1.30;0.00;;;10.60;99.90;;;;;;5052995;28;20451;-76
2022/12/31 04:53:28;;;;;;;0.57;0.00;;;10.60;99.90;;;;;;5035121;28;20021;-77
2022/12/31 04:55:54;;;;;;;0.75;0.10;;;10.60;99.90;;;;;;5053023;28;20074;-76
2022/12/31 04:58:19;;;;;;;0.85;0.32;;;10.60;99.90;;;;;;5052790;28;20075;-76
2022/12/31 05:00:48;;;;;;;0.28;0.05;;;10.60;99.90;;;;;;5052748;28;20029;-76
2022/12/31 05:03:15;;;;;;;1.65;0.25;;;10.60;99.90;;;;;;5052819;28;20017;-76
2022/12/31 05:05:42;;;;;;;1.65;0.40;;;10.60;99.90;;;;;;5052804;28;20017;-77
2022/12/31 05:08:08;;;;;;;0.43;0.10;;;10.70;99.90;;;;;;5034934;28;20021;-75
2022/12/31 05:10:34;;;;;;;1.15;0.30;;;10.60;99.90;;;;;;5052727;28;20025;-76
2022/12/31 05:13:01;;;;;;;1.10;0.40;;;10.60;99.90;;;;;;5036943;28;20459;-76
2022/12/31 05:15:26;;;;;;;0.55;0.20;;;10.60;99.90;;;;;;5056652;28;20028;-76
2022/12/31 05:17:52;;;;;;;2.20;0.10;;;10.70;99.90;;;;;;5038725;28;20017;-76
2022/12/31 05:20:18;;;;;;;4.00;0.57;;;10.90;99.90;;;;;;5038618;28;20032;-76
2022/12/31 05:22:43;;;;;;;0.40;0.10;;;10.70;99.90;;;;;;5038627;28;20479;-76
2022/12/31 05:25:09;;;;;;;0.85;0.30;;;10.60;99.90;;;;;;5056280;28;20400;-76
2022/12/31 05:27:36;;;;;;;1.45;0.40;;;10.70;99.90;;;;;;5038509;28;20028;-76
2022/12/31 05:30:03;;;;;;;0.70;0.20;;;10.70;99.90;;;;;;5056254;28;20017;-76
2022/12/31 05:32:29;;;;;;;1.70;0.60;;;10.80;99.90;;;;;;5038325;28;20099;-76
2022/12/31 05:34:56;;;;;;;0.90;0.45;;;10.80;99.90;;;;;;5056785;28;20021;-75
2022/12/31 05:37:22;;;;;;;1.60;0.60;;;10.90;99.90;;;;;;5056169;28;20124;-77
2022/12/31 05:39:47;;;;;;;1.33;0.55;;;10.90;99.90;;;;;;5056328;28;20040;-77
2022/12/31 05:42:13;;;;;;;0.75;0.30;;;10.90;99.90;;;;;;5056235;28;20017;-77
2022/12/31 05:44:38;;;;;;;2.13;0.50;;;11.00;99.90;;;;;;5056024;28;20067;-77
2022/12/31 05:47:04;;;;;;;0.63;0.47;;;11.00;99.90;;;;;;5056589;28;20029;-78
2022/12/31 05:49:29;;;;;;;0.28;0.17;;;11.10;99.90;;;;;;5055828;28;20100;-77
2022/12/31 05:51:55;;;;;;;0.55;0.30;;;11.40;99.90;;;;;;5056530;28;20025;-77
2022/12/31 05:54:20;;;;;;;0.47;0.10;;;11.20;99.90;;;;;;5055866;28;20116;-77
2022/12/31 05:56:46;;;;;;;0.40;0.10;;;11.20;99.90;;;;;;5055693;28;20040;-77
2022/12/31 05:59:12;;;;;;;1.90;0.10;;;11.20;99.90;;;;;;5055657;28;20032;-77
2022/12/31 06:01:37;;;;;;;0.40;0.10;;;11.20;99.90;;;;;;5055918;28;20021;-76
2022/12/31 06:04:03;;;;;;;0.22;0.10;;;11.30;99.90;;;;;;5056510;28;20025;-77
2022/12/31 06:06:28;;;;;;;0.10;0.00;;;11.30;99.90;;;;;;5055844;28;20403;-77
2022/12/31 06:08:54;;;;;;;0.15;0.00;;;11.30;99.90;;;;;;5038202;28;20025;-77
2022/12/31 06:11:19;;;;;;;0.00;0.00;;;11.30;99.90;;;;;;5037925;28;20021;-77
2022/12/31 06:13:45;;;;;;;0.17;0.00;;;11.40;99.90;;;;;;5056188;28;20029;-77
2022/12/31 06:16:11;;;;;;;0.00;0.00;;;11.50;99.90;;;;;;5037709;28;20025;-77
2022/12/31 06:18:37;;;;;;;0.68;0.00;;;;;;;;;;5037517;28;20033;-77
2022/12/31 06:21:03;;;;;;;0.57;0.00;;;11.50;99.90;;;;;;5055477;28;20365;-76
2022/12/31 06:23:29;;;;;;;0.73;0.00;;;11.50;99.90;;;;;;5048247;23;20110;-77
2022/12/31 06:25:54;;;;;;;0.00;0.00;;;11.50;99.90;;;;;;5074569;28;20051;-78
2022/12/31 06:28:20;;;;;;;0.35;0.00;;;11.60;99.90;;;;;;5074238;28;20031;-78
2022/12/31 06:30:46;;;;;;;0.20;0.00;;;11.60;99.90;;;;;;5075417;28;20025;-77
2022/12/31 06:33:12;;;;;;;0.98;0.10;;;11.60;99.90;;;;;;5074332;28;20081;-77
2022/12/31 06:35:37;;;;;;;0.20;0.20;;;11.60;99.90;;;;;;5075695;28;20031;-77
2022/12/31 06:38:03;;;;;;;0.50;0.40;;;11.70;99.90;;;;;;5075381;28;20425;-77
2022/12/31 06:40:28;;;;;;;1.17;0.30;;;11.70;99.90;;;;;;5074001;28;20372;-77
2022/12/31 06:42:54;;;;;;;2.33;1.00;;;11.70;99.90;;;;;;5075961;28;20370;-77
2022/12/31 06:45:19;;;;;;;2.25;0.70;;;11.80;99.90;;;;;;5075289;28;20483;-78
2022/12/31 06:47:45;;;;;;;2.08;1.05;;;12.40;99.90;;;;;;5075156;28;20028;-78
2022/12/31 06:50:11;;;;;;;3.20;1.83;;;11.90;99.90;;;;;;5073641;28;20023;-78
2022/12/31 06:52:36;;;;;;;1.92;1.33;;;11.90;99.90;;;;;;5075271;28;20056;-78
2022/12/31 06:55:03;;;;;;;2.58;1.38;;;12.00;99.90;;;;;;5075288;28;20032;-78
2022/12/31 06:57:29;;;;;;;1.40;1.02;;;12.10;99.90;;;;;;5075955;28;20052;-78
2022/12/31 06:59:55;;;;;;;2.28;0.98;;;12.10;99.90;;;;;;5073680;28;20027;-78
2022/12/31 07:02:31;;;;;;;1.90;0.80;;;12.10;99.90;;;;;;5073998;28;20017;-77
2022/12/31 07:05:27;;;;;;;1.00;0.50;;;12.20;99.90;;;;;;5073722;28;20071;-78
2022/12/31 07:08:26;;;;;;;1.58;0.80;;;12.30;99.90;;;;;;5074788;28;20027;-78
2022/12/31 07:11:19;;;;;;;0.85;0.20;;;12.40;99.90;;;;;;5075247;28;20035;-78
2022/12/31 07:13:51;;;;;;;0.10;0.05;;;12.50;99.90;;;;;;5074965;28;20050;-78
2022/12/31 07:16:19;;;;;;;0.10;0.00;;;12.50;99.90;;;;;;5074479;28;20032;-76
2022/12/31 07:18:56;;;;;;;0.80;0.00;;;12.60;99.90;;;;;;5073438;28;20017;-78
2022/12/31 07:21:32;;;;;;;0.22;0.00;;;12.60;99.90;;;;;;5075339;28;20109;-78
2022/12/31 07:23:58;;;;;;;0.00;0.00;;;12.60;99.90;;;;;;5074678;28;20031;-78
2022/12/31 07:26:30;;;;;;;0.00;0.00;;;12.70;99.90;;;;;;5074663;28;20025;-78
2022/12/31 07:29:14;;;;;;;1.27;0.00;;;12.80;99.90;;;;;;5074990;28;20025;-78
2022/12/31 07:32:30;;;;;;;0.00;0.00;;;12.90;99.90;;;;;;5074301;28;20470;-78
2022/12/31 07:35:05;;;;;;;0.00;0.00;;;12.90;99.90;;;;;;4992872;28;20027;-78
2022/12/31 07:37:59;;;;;;;0.25;0.00;;;13.00;99.90;;;;;;5062739;28;20086;-77
2022/12/31 07:40:49;;;;;;;0.00;0.00;;;13.00;99.90;;;;;;5074272;28;20052;-77
2022/12/31 07:43:38;;;;;;;0.00;0.00;;;13.00;99.90;;;;;;5072727;28;20016;-77
2022/12/31 07:46:12;;;;;;;0.10;0.00;;;13.00;99.90;;;;;;5072841;28;20032;-77
2022/12/31 07:48:38;;;;;;;0.00;0.00;;;13.00;99.90;;;;;;5073973;28;20035;-78
2022/12/31 07:51:04;;;;;;;0.15;0.00;;;13.00;99.90;;;;;;5073973;28;20025;-77
2022/12/31 07:53:30;;;;;;;0.03;0.00;;;13.00;99.90;;;;;;5074240;28;20027;-77
2022/12/31 07:55:58;;;;;;;0.08;0.00;;;13.10;99.90;;;;;;5073762;28;20491;-78
2022/12/31 07:58:33;;;;;;;0.40;0.00;;;13.00;99.90;;;;;;5074125;28;20056;-78
2022/12/31 08:01:00;;;;;;;0.10;0.00;;;13.00;99.90;;;;;;5073736;28;20427;-77
2022/12/31 08:03:57;;;;;;;0.52;0.00;;;13.00;99.90;;;;;;5072481;28;20013;-77
2022/12/31 08:06:45;;;;;;;0.00;0.00;;;13.10;99.90;;;;;;5045405;28;20033;-77
2022/12/31 08:09:48;;;;;;;0.20;0.00;;;13.10;99.90;;;;;;5073858;28;20104;-77
2022/12/31 08:12:14;;;;;;;1.02;0.00;;;13.10;99.90;;;;;;5072344;28;20410;-77
2022/12/31 08:14:46;;;;;;;0.75;0.30;;;13.20;99.90;;;;;;5072271;28;20111;-77
2022/12/31 08:17:15;;;;;;;1.45;0.00;;;13.20;99.90;;;;;;5074360;28;20028;-77
2022/12/31 08:19:41;;;;;;;0.70;0.00;;;13.10;99.90;;;;;;5072211;28;20052;-77
2022/12/31 08:22:31;;;;;;;1.80;0.00;;;13.10;99.90;;;;;;5072598;28;20022;-78
2022/12/31 08:25:01;;;;;;;0.45;0.00;;;13.10;99.90;;;;;;5072142;28;20033;-77
2022/12/31 08:27:46;;;;;;;0.75;0.00;;;13.10;99.90;;;;;;5072136;28;20121;-78
2022/12/31 08:30:15;;;;;;;0.00;0.00;;;13.10;99.90;;;;;;5072407;28;20031;-77
2022/12/31 08:33:08;;;;;;;0.52;0.15;;;13.10;99.90;;;;;;5073358;28;20024;-77
2022/12/31 08:36:01;;;;;;;0.65;0.13;;;13.10;99.90;;;;;;5072157;28;20087;-77
2022/12/31 08:38:47;;;;;;;1.65;0.00;;;13.10;99.90;;;;;;5073905;28;20074;-78
2022/12/31 08:41:13;;;;;;;0.00;0.00;;;13.00;99.90;;;;;;5054736;28;20040;-75
2022/12/31 08:44:07;;;;;;;5.95;0.00;;;13.00;99.90;;;;;;5071901;28;20390;-75
2022/12/31 08:46:51;;;;;;;0.90;0.00;;;13.00;99.90;;;;;;5074658;28;20023;-75
2022/12/31 08:49:17;;;;;;;0.32;0.00;;;13.00;99.90;;;;;;5076226;28;20069;-75
2022/12/31 08:51:42;;;;;;;0.10;0.00;;;13.00;99.90;;;;;;5077183;28;20017;-75
2022/12/31 08:54:10;;;;;;;0.00;0.00;;;12.90;99.90;;;;;;5076093;28;20433;-76
2022/12/31 08:56:56;;;;;;;0.68;0.00;;;12.90;99.90;;;;;;5075988;28;20394;-75
2022/12/31 08:59:59;;;;;;;0.35;0.00;;;12.90;99.90;;;;;;5076779;28;20036;-75
2022/12/31 09:03:02;;;;;;;0.82;0.05;;;12.90;99.90;;;;;;5075661;28;20115;-75
2022/12/31 09:05:57;;;;;;;0.50;0.03;;;12.90;99.90;;;;;;5076805;28;20032;-77
2022/12/31 09:08:44;;;;;;;1.65;0.00;;;12.90;99.90;;;;;;5076162;28;20028;-76
2022/12/31 09:11:24;;;;;;;0.88;0.20;;;12.90;99.90;;;;;;5075560;28;20407;-72
2022/12/31 09:14:14;;;;;;;0.00;0.00;;;13.00;99.90;;;;;;5056496;28;20029;-76
2022/12/31 09:16:39;;;;;;;5.70;0.55;;;12.90;99.90;;;;;;5056719;28;20112;-75
2022/12/31 09:19:07;;;;;;;2.40;0.00;;;13.00;99.90;;;;;;5055259;28;20519;-75
2022/12/31 09:21:33;;;;;;;1.13;0.25;;;13.00;99.90;;;;;;5056726;28;20025;-75
2022/12/31 09:23:59;;;;;;;0.30;0.00;;;13.00;99.90;;;;;;5054990;28;20448;-76
2022/12/31 09:26:45;;;;;;;2.70;0.47;;;13.10;99.90;;;;;;5056988;28;20021;-76
2022/12/31 09:29:39;;;;;;;0.38;0.00;;;13.10;99.90;;;;;;5056769;28;20448;-76
2022/12/31 09:32:30;;;;;;;1.00;0.10;;;13.20;99.90;;;;;;5056311;28;20033;-76
2022/12/31 09:35:02;;;;;;;1.67;0.00;;;13.20;99.90;;;;;;5056412;28;20040;-76
2022/12/31 09:37:47;;;;;;;8.07;0.88;;;13.30;99.90;;;;;;5056849;28;20031;-76
2022/12/31 09:40:27;;;;;;;3.25;0.08;;;13.30;99.90;;;;;;5056800;28;20423;-76
2022/12/31 09:43:27;;;;;;;1.65;0.00;;;13.40;99.90;;;;;;5056136;28;20582;-76
2022/12/31 09:46:24;;;;;;;1.25;0.00;;;13.40;99.90;;;;;;5054851;28;20032;-76
2022/12/31 09:49:19;;;;;;;1.45;0.35;;;13.60;99.90;;;;;;5054952;28;20017;-75
2022/12/31 09:52:08;;;;;;;2.08;0.32;;;13.60;99.90;;;;;;5054691;28;20029;-74
2022/12/31 09:54:58;;;;;;;1.98;0.00;;;13.70;99.90;;;;;;5054620;28;20029;-75
2022/12/31 09:57:40;;;;;;;3.17;0.17;;;13.80;99.90;;;;;;5055629;28;20033;-76
2022/12/31 10:00:26;;;;;;;1.30;0.00;;;13.80;99.90;;;;;;5055685;28;20543;-75
2022/12/31 10:03:04;;;;;;;1.55;0.00;;;13.90;99.90;;;;;;5054752;28;20025;-75
2022/12/31 10:05:29;;;;;;;1.55;0.08;;;13.90;99.90;;;;;;5055885;28;20017;-75
2022/12/31 10:08:27;;;;;;;1.20;0.10;;;14.00;99.90;;;;;;5055795;28;20048;-75
2022/12/31 10:10:57;;;;;;;0.73;0.38;;;14.00;99.90;;;;;;5057067;28;20078;-75
2022/12/31 10:13:47;;;;;;;0.57;0.03;;;14.20;99.90;;;;;;5055472;28;20376;-76
2022/12/31 10:16:35;;;;;;;1.60;0.10;;;14.20;99.90;;;;;;5056989;28;20380;-76
2022/12/31 10:19:27;;;;;;;1.23;0.00;;;14.20;99.90;;;;;;5056613;28;20032;-75
2022/12/31 10:22:14;;;;;;;2.70;0.00;;;14.30;99.90;;;;;;5056955;28;20606;-76
2022/12/31 10:24:56;;;;;;;4.65;0.00;;;14.30;99.90;;;;;;5054491;28;20147;-75
2022/12/31 10:27:38;;;;;;;2.97;0.10;;;14.30;99.90;;;;;;5055919;28;20021;-76
2022/12/31 10:30:12;;;;;;;2.33;0.00;;;14.30;99.90;;;;;;5056306;28;20392;-76
2022/12/31 10:32:53;;;;;;;1.45;0.10;;;14.40;99.90;;;;;;5054690;28;20391;-76
2022/12/31 10:35:45;;;;;;;1.02;0.00;;;14.40;99.90;;;;;;5054850;28;20376;-76
2022/12/31 10:38:34;;;;;;;1.55;0.00;;;14.40;99.90;;;;;;5054528;28;20017;-76
2022/12/31 10:41:17;;;;;;;1.92;0.03;;;14.50;99.90;;;;;;5055745;28;20075;-76
2022/12/31 10:43:51;;;;;;;0.00;0.00;;;14.40;99.90;;;;;;5056226;28;20017;-77
2022/12/31 10:46:59;;;;;;;1.35;0.00;;;14.50;99.90;;;;;;5054634;28;20111;-73
2022/12/31 10:49:49;;;;;;;0.90;0.20;;;14.60;99.90;;;;;;5043754;28;20037;-78
2022/12/31 10:52:18;;;;;;;2.10;0.10;;;14.60;99.90;;;;;;5053941;28;20056;-75
2022/12/31 10:55:14;;;;;;;0.75;0.00;;;14.70;99.90;;;;;;5055516;28;20063;-78
2022/12/31 10:57:55;;;;;;;1.45;0.00;;;14.70;99.90;;;;;;5053695;28;20103;-78
2022/12/31 11:00:22;;;;;;;1.33;0.00;;;14.80;99.90;;;;;;5054909;28;20017;-76
2022/12/31 11:02:56;;;;;;;0.85;0.25;;;14.80;99.90;;;;;;5054803;28;20025;-78
2022/12/31 11:05:40;;;;;;;1.85;0.00;;;14.80;99.90;;;;;;5055266;28;20025;-78
2022/12/31 11:08:36;;;;;;;1.80;0.00;;;14.70;99.90;;;;;;5055397;28;20040;-76
2022/12/31 11:11:05;;;;;;;0.10;0.00;;;14.70;99.90;;;;;;5053431;28;20057;-76
2022/12/31 11:13:39;;;;;;;1.35;0.00;;;14.60;99.90;;;;;;5053095;28;20377;-76
2022/12/31 11:16:17;;;;;;;1.58;0.40;;;14.60;99.90;;;;;;5054639;28;20039;-75
2022/12/31 11:18:50;;;;;;;0.70;0.00;;;14.50;99.90;;;;;;5054618;28;20020;-75
2022/12/31 11:21:35;;;;;;;2.20;0.00;;;14.50;99.90;;;;;;5054639;28;20036;-75
2022/12/31 11:24:17;;;;;;;1.75;0.45;;;14.40;99.90;;;;;;5054136;28;20056;-77
2022/12/31 11:27:07;;;;;;;1.08;0.00;;;14.40;99.90;;;;;;5054291;28;20029;-77
2022/12/31 11:30:17;;;;;;;0.45;0.00;;;14.30;99.90;;;;;;5054687;28;20104;-73
2022/12/31 11:32:49;;;;;;;3.40;0.30;;;14.30;99.90;;;;;;5055171;28;20108;-75
2022/12/31 11:35:15;;;;;;;0.70;0.00;;;14.30;99.90;;;;;;5052708;28;20025;-77
2022/12/31 11:37:53;;;;;;;2.47;0.47;;;14.20;99.90;;;;;;5053631;28;20021;-76
2022/12/31 11:40:40;;;;;;;0.85;0.10;;;14.20;99.90;;;;;;5054089;28;20040;-76
2022/12/31 11:43:42;;;;;;;2.10;0.00;;;14.30;99.90;;;;;;5053499;28;20026;-76
2022/12/31 11:46:26;;;;;;;1.52;0.20;;;14.40;99.90;;;;;;5034639;28;20462;-75
2022/12/31 11:49:11;;;;;;;0.30;0.10;;;14.50;99.90;;;;;;5054429;28;20040;-75
2022/12/31 11:52:14;;;;;;;3.00;0.63;;;14.50;99.90;;;;;;5053763;28;20028;-75
2022/12/31 11:55:12;;;;;;;2.53;0.00;;;12.90;99.90;;;;;;5045078;28;20124;-74
2022/12/31 11:57:40;;;;;;;1.92;0.00;;;14.80;99.90;;;;;;5022552;28;20033;-74
2022/12/31 12:00:21;;;;;;;3.33;0.20;;;14.80;99.90;;;;;;5053468;28;20096;-74
2022/12/31 12:02:58;;;;;;;3.95;0.65;;;14.80;99.90;;;;;;5052517;28;20021;-74
2022/12/31 12:05:25;;;;;;;1.00;0.30;;;14.80;99.90;;;;;;5052159;28;20021;-75
2022/12/31 12:07:52;;;;;;;3.42;0.10;;;14.80;99.90;;;;;;5053460;28;20369;-74
2022/12/31 12:10:31;;;;;;;3.83;0.52;;;14.80;99.90;;;;;;5053313;28;20475;-74
2022/12/31 12:12:58;;;;;;;4.53;0.20;;;15.00;99.90;;;;;;5052538;28;20091;-74
2022/12/31 12:15:31;;;;;;;0.30;0.10;;;15.00;99.90;;;;;;5053316;28;20070;-75
2022/12/31 12:18:00;;;;;;;1.98;0.10;;;14.90;99.90;;;;;;5051929;28;20021;-75
2022/12/31 12:20:28;;;;;;;3.42;0.05;;;14.90;99.90;;;;;;5051811;28;20029;-75
2022/12/31 12:22:56;;;;;;;1.85;0.00;;;14.90;99.90;;;;;;5053427;28;20033;-75
2022/12/31 12:25:25;;;;;;;4.45;0.00;;;14.90;99.90;;;;;;5052163;28;20029;-75
2022/12/31 12:27:53;;;;;;;1.75;0.47;;;14.90;99.90;;;;;;5053212;28;20032;-75
2022/12/31 12:30:24;;;;;;;3.53;0.17;;;14.80;99.90;;;;;;5051849;28;20056;-75
2022/12/31 12:33:03;;;;;;;4.13;0.20;;;14.80;99.90;;;;;;5053159;28;20552;-75
2022/12/31 12:35:34;;;;;;;2.65;0.35;;;14.80;99.90;;;;;;5053152;28;20033;-75
2022/12/31 12:38:01;;;;;;;0.35;0.00;;;14.80;99.90;;;;;;5053046;28;20384;-75
2022/12/31 12:40:27;;;;;;;2.85;0.20;;;14.80;99.90;;;;;;5053536;28;20051;-75
2022/12/31 12:42:53;;;;;;;4.53;0.10;;;14.80;99.90;;;;;;5053022;28;20064;-74
2022/12/31 12:45:25;;;;;;;1.27;0.08;;;14.80;99.90;;;;;;5051700;28;20021;-75
2022/12/31 12:48:07;;;;;;;3.30;0.25;;;14.80;99.90;;;;;;5052984;28;20059;-74
2022/12/31 12:50:44;;;;;;;4.70;0.52;;;14.80;99.90;;;;;;5052872;28;20135;-74
2022/12/31 12:53:18;;;;;;;4.57;0.30;;;14.80;99.90;;;;;;5052937;28;20029;-74
2022/12/31 12:56:17;;;;;;;1.65;0.00;;;14.80;99.90;;;;;;5053194;28;20033;-75
2022/12/31 12:58:51;;;;;;;0.95;0.08;;;14.80;99.90;;;;;;5053304;28;20032;-75
2022/12/31 13:01:45;;;;;;;1.30;0.32;;;14.90;99.90;;;;;;5053368;28;20521;-74
2022/12/31 13:04:59;;;;;;;4.65;0.15;;;14.80;99.90;;;;;;5052767;28;20053;-74
2022/12/31 13:07:27;;;;;;;3.20;0.05;;;14.90;99.90;;;;;;5053417;28;20430;-74
2022/12/31 13:10:25;;;;;;;1.27;0.00;;;14.90;99.90;;;;;;5053679;28;20108;-73
2022/12/31 13:13:08;;;;;;;1.70;0.30;;;14.90;99.90;;;;;;5054423;28;20029;-73
2022/12/31 13:15:49;;;;;;;3.40;0.10;;;14.80;99.90;;;;;;5053296;28;20021;-73
2022/12/31 13:18:45;;;;;;;4.03;0.17;;;14.80;99.90;;;;;;5051853;28;20056;-73
2022/12/31 13:21:35;;;;;;;5.47;0.70;;;14.70;99.90;;;;;;5052814;28;20071;-73
2022/12/31 13:24:17;;;;;;;2.63;0.52;;;14.70;99.90;;;;;;5052752;28;20056;-73
2022/12/31 13:27:03;;;;;;;2.83;0.00;;;14.70;99.90;;;;;;5052904;28;20506;-73
2022/12/31 13:29:31;;;;;;;2.53;0.00;;;14.60;99.90;;;;;;5041930;28;20500;-73
2022/12/31 13:31:59;;;;;;;3.35;0.38;;;14.60;99.90;;;;;;5053269;28;20017;-73
2022/12/31 13:34:30;;;;;;;3.90;0.47;;;14.50;99.90;;;;;;5055780;28;20072;-72
2022/12/31 13:37:00;;;;;;;2.25;0.00;;;14.50;99.90;;;;;;5056549;28;20022;-73